createdAt,value
2023-05-17T00:01:39.265Z,1.98
2023-05-17T00:12:02.093Z,1.75
2023-05-17T00:22:23.277Z,1.67
2023-05-17T00:32:47.083Z,1.48
2023-05-17T00:43:08.478Z,1.60
2023-05-17T00:53:30.373Z,1.60
2023-05-17T01:03:52.471Z,1.50
2023-05-17T01:14:32.887Z,1.48
2023-05-17T01:25:13.431Z,1.35
2023-05-17T01:35:34.700Z,1.40
2023-05-17T01:46:41.766Z,1.33
2023-05-17T01:57:05.486Z,1.20
2023-05-17T02:07:26.614Z,1.38
2023-05-17T02:17:50.491Z,1.33
2023-05-17T02:28:11.974Z,1.10
2023-05-17T02:38:33.130Z,1.00
2023-05-17T02:48:54.248Z,1.33
2023-05-17T02:59:15.524Z,1.23
2023-05-17T03:09:37.573Z,1.13
2023-05-17T03:20:00.791Z,1.15
2023-05-17T03:30:23.042Z,1.15
2023-05-17T03:40:45.178Z,0.95
2023-05-17T03:51:06.564Z,1.50
2023-05-17T04:01:28.822Z,1.00
2023-05-17T04:11:50.655Z,1.40
2023-05-17T04:22:12.205Z,1.00
2023-05-17T04:32:34.538Z,0.90
2023-05-17T04:42:56.969Z,0.80
2023-05-17T04:53:20.348Z,1.05
2023-05-17T05:03:43.739Z,1.02
2023-05-17T05:14:06.938Z,1.00
2023-05-17T05:24:29.103Z,1.08
2023-05-17T05:34:50.966Z,1.05
2023-05-17T05:45:12.762Z,1.45
2023-05-17T05:55:35.134Z,1.00
2023-05-17T06:05:56.892Z,1.00
2023-05-17T06:16:18.292Z,1.00
2023-05-17T06:26:41.247Z,1.00
2023-05-17T06:37:02.500Z,1.23
2023-05-17T06:47:23.593Z,1.23
2023-05-17T06:57:45.038Z,1.13
2023-05-17T07:08:06.375Z,1.27
2023-05-17T07:18:28.108Z,1.40
2023-05-17T07:28:49.497Z,2.05
2023-05-17T07:39:11.256Z,1.67
2023-05-17T07:49:32.662Z,1.67
2023-05-17T07:59:53.986Z,1.35
2023-05-17T08:10:15.366Z,1.70
2023-05-17T08:20:36.753Z,1.95
2023-05-17T08:30:58.753Z,1.75
2023-05-17T08:41:21.091Z,2.20
2023-05-17T08:51:42.554Z,2.13
2023-05-17T09:02:05.970Z,2.33
2023-05-17T09:12:27.831Z,2.70
2023-05-17T09:22:49.394Z,2.35
2023-05-17T09:33:12.408Z,2.80
2023-05-17T09:43:35.172Z,2.30
2023-05-17T09:53:58.344Z,3.20
2023-05-17T10:04:23.466Z,2.15
2023-05-17T10:14:46.105Z,2.47
2023-05-17T10:25:08.965Z,3.30
2023-05-17T10:35:32.732Z,2.28
2023-05-17T10:45:54.689Z,3.08
2023-05-17T10:56:16.416Z,2.70
2023-05-17T11:06:38.657Z,2.75
2023-05-17T11:16:59.883Z,2.83
2023-05-17T11:27:27.519Z,3.13
2023-05-17T11:37:53.333Z,2.85
2023-05-17T11:48:15.873Z,2.67
2023-05-17T11:58:37.676Z,3.25
2023-05-17T12:08:59.006Z,2.80
2023-05-17T12:19:22.577Z,2.70
2023-05-17T12:29:44.120Z,3.00
2023-05-17T12:40:06.833Z,3.17
2023-05-17T12:50:31.789Z,3.20
2023-05-17T13:01:07.677Z,3.60
2023-05-17T13:11:28.876Z,3.07
2023-05-17T13:21:50.334Z,3.10
2023-05-17T13:32:13.164Z,3.20
2023-05-17T13:42:34.893Z,3.33
2023-05-17T13:52:56.058Z,3.17
2023-05-17T14:03:17.617Z,2.83
2023-05-17T14:13:39.288Z,3.08
2023-05-17T14:24:00.738Z,3.08
2023-05-17T14:34:22.353Z,2.75
2023-05-17T14:44:43.594Z,3.10
2023-05-17T14:55:05.828Z,3.08
2023-05-17T15:05:28.012Z,2.70
2023-05-17T15:15:49.748Z,3.30
2023-05-17T15:26:11.297Z,2.85
2023-05-17T15:36:32.981Z,2.80
2023-05-17T15:46:54.464Z,3.15
2023-05-17T15:57:16.597Z,2.75
2023-05-17T16:07:37.594Z,3.10
2023-05-17T16:17:59.896Z,3.00
2023-05-17T16:28:21.947Z,2.55
2023-05-17T16:38:43.534Z,3.05
2023-05-17T16:49:05.053Z,2.72
2023-05-17T16:59:26.592Z,2.70
2023-05-17T17:09:47.837Z,2.47
2023-05-17T17:20:09.420Z,2.80
2023-05-17T17:30:32.250Z,2.90
2023-05-17T17:40:54.045Z,2.75
2023-05-17T17:51:15.810Z,2.55
2023-05-17T18:01:38.469Z,2.53
2023-05-17T18:11:59.856Z,2.58
2023-05-17T18:22:22.342Z,3.28
2023-05-17T18:32:43.769Z,2.97
2023-05-17T18:43:05.785Z,2.65
2023-05-17T18:53:27.062Z,2.65
2023-05-17T19:03:51.749Z,3.22
2023-05-17T19:14:14.919Z,2.95
2023-05-17T19:24:36.721Z,2.60
2023-05-17T19:34:58.085Z,2.80
2023-05-17T19:45:19.850Z,2.70
2023-05-17T19:55:42.562Z,2.67
2023-05-17T20:06:03.831Z,2.80
2023-05-17T20:16:28.162Z,3.00
2023-05-17T20:26:51.170Z,2.92
2023-05-17T20:37:12.647Z,2.63
2023-05-17T20:47:34.506Z,2.70
2023-05-17T20:57:55.881Z,3.08
2023-05-17T21:08:17.367Z,2.90
2023-05-17T21:18:41.316Z,2.90
2023-05-17T21:29:02.949Z,2.80
2023-05-17T21:39:24.682Z,2.35
2023-05-17T21:49:46.040Z,2.92
2023-05-17T22:00:13.088Z,2.50
2023-05-17T22:10:34.513Z,3.10
2023-05-17T22:20:59.579Z,2.60
2023-05-17T22:31:21.066Z,2.75
2023-05-17T22:41:42.741Z,2.72
2023-05-17T22:52:06.007Z,2.58
2023-05-17T23:02:27.347Z,3.03
2023-05-17T23:12:50.226Z,2.67
2023-05-17T23:23:16.628Z,2.70
2023-05-17T23:33:39.102Z,2.33
2023-05-17T23:44:00.855Z,2.50
2023-05-17T23:54:23.266Z,2.40
